sensor_id;sensor_type;location;lat;lon;timestamp;P1;durP1;ratioP1;P2;durP2;ratioP2
17820;SDS011;9035;42.554;23.188;2022-08-03T00:02:04;2.07;;;1.20;;
17820;SDS011;9035;42.554;23.188;2022-08-03T00:04:31;2.43;;;1.50;;
17820;SDS011;9035;42.554;23.188;2022-08-03T00:06:57;1.57;;;1.30;;
17820;SDS011;9035;42.554;23.188;2022-08-03T00:09:24;3.07;;;1.67;;
17820;SDS011;9035;42.554;23.188;2022-08-03T00:11:51;2.70;;;1.73;;
17820;SDS011;9035;42.554;23.188;2022-08-03T00:14:18;1.50;;;1.40;;
17820;SDS011;9035;42.554;23.188;2022-08-03T00:16:46;2.80;;;1.30;;
17820;SDS011;9035;42.554;23.188;2022-08-03T00:19:13;1.63;;;1.53;;
17820;SDS011;9035;42.554;23.188;2022-08-03T00:21:39;1.90;;;1.47;;
17820;SDS011;9035;42.554;23.188;2022-08-03T00:24:06;1.87;;;1.60;;
17820;SDS011;9035;42.554;23.188;2022-08-03T00:26:33;1.90;;;1.70;;
17820;SDS011;9035;42.554;23.188;2022-08-03T00:29:00;1.60;;;1.50;;
17820;SDS011;9035;42.554;23.188;2022-08-03T00:31:26;2.47;;;1.60;;
17820;SDS011;9035;42.554;23.188;2022-08-03T00:33:55;1.90;;;1.80;;
17820;SDS011;9035;42.554;23.188;2022-08-03T00:36:22;2.00;;;1.57;;
17820;SDS011;9035;42.554;23.188;2022-08-03T00:38:48;1.80;;;1.70;;
17820;SDS011;9035;42.554;23.188;2022-08-03T00:41:15;2.77;;;1.67;;
17820;SDS011;9035;42.554;23.188;2022-08-03T00:43:42;1.87;;;1.73;;
17820;SDS011;9035;42.554;23.188;2022-08-03T00:46:09;2.50;;;1.60;;
17820;SDS011;9035;42.554;23.188;2022-08-03T00:48:36;1.53;;;1.43;;
17820;SDS011;9035;42.554;23.188;2022-08-03T00:51:04;2.27;;;1.80;;
17820;SDS011;9035;42.554;23.188;2022-08-03T00:53:31;1.70;;;1.60;;
17820;SDS011;9035;42.554;23.188;2022-08-03T00:56:00;3.50;;;1.70;;
17820;SDS011;9035;42.554;23.188;2022-08-03T00:58:27;2.97;;;2.27;;
17820;SDS011;9035;42.554;23.188;2022-08-03T01:00:54;2.37;;;1.70;;
17820;SDS011;9035;42.554;23.188;2022-08-03T01:03:21;2.53;;;1.63;;
17820;SDS011;9035;42.554;23.188;2022-08-03T01:05:50;4.67;;;1.67;;
17820;SDS011;9035;42.554;23.188;2022-08-03T01:08:26;2.23;;;1.87;;
17820;SDS011;9035;42.554;23.188;2022-08-03T01:11:00;1.73;;;1.60;;
17820;SDS011;9035;42.554;23.188;2022-08-03T01:13:33;3.53;;;1.87;;
17820;SDS011;9035;42.554;23.188;2022-08-03T01:16:11;1.73;;;1.63;;
17820;SDS011;9035;42.554;23.188;2022-08-03T01:18:44;3.13;;;1.67;;
17820;SDS011;9035;42.554;23.188;2022-08-03T01:21:18;2.07;;;1.90;;
17820;SDS011;9035;42.554;23.188;2022-08-03T01:26:52;2.70;;;1.77;;
17820;SDS011;9035;42.554;23.188;2022-08-03T01:29:46;1.90;;;1.80;;
17820;SDS011;9035;42.554;23.188;2022-08-03T01:32:24;2.43;;;1.80;;
17820;SDS011;9035;42.554;23.188;2022-08-03T01:34:54;2.23;;;2.03;;
17820;SDS011;9035;42.554;23.188;2022-08-03T01:37:27;2.20;;;2.00;;
17820;SDS011;9035;42.554;23.188;2022-08-03T01:40:00;2.37;;;2.10;;
17820;SDS011;9035;42.554;23.188;2022-08-03T01:42:29;2.23;;;2.00;;
17820;SDS011;9035;42.554;23.188;2022-08-03T01:44:59;2.73;;;1.80;;
17820;SDS011;9035;42.554;23.188;2022-08-03T01:47:27;3.40;;;1.97;;
17820;SDS011;9035;42.554;23.188;2022-08-03T01:49:55;2.50;;;2.10;;
17820;SDS011;9035;42.554;23.188;2022-08-03T01:52:24;2.37;;;2.17;;
17820;SDS011;9035;42.554;23.188;2022-08-03T01:54:52;2.67;;;1.97;;
17820;SDS011;9035;42.554;23.188;2022-08-03T01:57:20;2.30;;;2.10;;
17820;SDS011;9035;42.554;23.188;2022-08-03T01:59:49;3.30;;;2.10;;
17820;SDS011;9035;42.554;23.188;2022-08-03T02:02:18;2.60;;;2.07;;
17820;SDS011;9035;42.554;23.188;2022-08-03T02:04:46;4.27;;;2.03;;
17820;SDS011;9035;42.554;23.188;2022-08-03T02:07:15;3.67;;;2.17;;
17820;SDS011;9035;42.554;23.188;2022-08-03T02:09:43;3.93;;;2.27;;
17820;SDS011;9035;42.554;23.188;2022-08-03T02:12:14;2.37;;;2.17;;
17820;SDS011;9035;42.554;23.188;2022-08-03T02:14:43;3.07;;;2.47;;
17820;SDS011;9035;42.554;23.188;2022-08-03T02:17:13;3.27;;;2.13;;
17820;SDS011;9035;42.554;23.188;2022-08-03T02:19:42;4.20;;;2.40;;
17820;SDS011;9035;42.554;23.188;2022-08-03T02:22:11;3.40;;;2.53;;
17820;SDS011;9035;42.554;23.188;2022-08-03T02:24:39;2.40;;;2.20;;
17820;SDS011;9035;42.554;23.188;2022-08-03T02:27:07;2.67;;;2.47;;
17820;SDS011;9035;42.554;23.188;2022-08-03T02:29:43;2.90;;;2.47;;
17820;SDS011;9035;42.554;23.188;2022-08-03T02:32:16;2.50;;;2.30;;
17820;SDS011;9035;42.554;23.188;2022-08-03T02:34:48;5.17;;;2.50;;
17820;SDS011;9035;42.554;23.188;2022-08-03T02:37:18;3.30;;;2.50;;
17820;SDS011;9035;42.554;23.188;2022-08-03T02:39:46;4.70;;;2.37;;
17820;SDS011;9035;42.554;23.188;2022-08-03T02:42:17;2.50;;;2.30;;
17820;SDS011;9035;42.554;23.188;2022-08-03T02:44:47;2.57;;;2.07;;
17820;SDS011;9035;42.554;23.188;2022-08-03T02:47:16;2.47;;;2.27;;
17820;SDS011;9035;42.554;23.188;2022-08-03T02:49:48;2.60;;;2.40;;
17820;SDS011;9035;42.554;23.188;2022-08-03T02:52:16;3.30;;;2.57;;
17820;SDS011;9035;42.554;23.188;2022-08-03T02:54:45;2.40;;;2.20;;
17820;SDS011;9035;42.554;23.188;2022-08-03T02:57:13;3.40;;;2.43;;
17820;SDS011;9035;42.554;23.188;2022-08-03T02:59:43;3.33;;;2.37;;
17820;SDS011;9035;42.554;23.188;2022-08-03T03:02:11;3.37;;;2.60;;
17820;SDS011;9035;42.554;23.188;2022-08-03T03:04:40;3.30;;;2.30;;
17820;SDS011;9035;42.554;23.188;2022-08-03T03:07:09;2.50;;;2.30;;
17820;SDS011;9035;42.554;23.188;2022-08-03T03:09:37;3.00;;;2.60;;
17820;SDS011;9035;42.554;23.188;2022-08-03T03:12:05;2.50;;;2.30;;
17820;SDS011;9035;42.554;23.188;2022-08-03T03:14:33;2.67;;;2.47;;
17820;SDS011;9035;42.554;23.188;2022-08-03T03:17:01;2.57;;;2.27;;
17820;SDS011;9035;42.554;23.188;2022-08-03T03:19:29;3.07;;;2.63;;
17820;SDS011;9035;42.554;23.188;2022-08-03T03:21:58;4.10;;;2.30;;
17820;SDS011;9035;42.554;23.188;2022-08-03T03:24:27;3.90;;;2.63;;
17820;SDS011;9035;42.554;23.188;2022-08-03T03:26:55;2.97;;;2.43;;
17820;SDS011;9035;42.554;23.188;2022-08-03T03:29:23;3.07;;;2.73;;
17820;SDS011;9035;42.554;23.188;2022-08-03T03:31:50;2.67;;;2.47;;
17820;SDS011;9035;42.554;23.188;2022-08-03T03:34:18;2.57;;;2.37;;
17820;SDS011;9035;42.554;23.188;2022-08-03T03:36:45;2.60;;;2.40;;
17820;SDS011;9035;42.554;23.188;2022-08-03T03:39:12;2.97;;;2.67;;
17820;SDS011;9035;42.554;23.188;2022-08-03T03:41:40;2.50;;;2.30;;
17820;SDS011;9035;42.554;23.188;2022-08-03T03:44:07;3.10;;;2.80;;
17820;SDS011;9035;42.554;23.188;2022-08-03T03:46:34;5.13;;;2.77;;
17820;SDS011;9035;42.554;23.188;2022-08-03T03:49:02;3.67;;;2.80;;
17820;SDS011;9035;42.554;23.188;2022-08-03T03:51:31;2.90;;;2.50;;
17820;SDS011;9035;42.554;23.188;2022-08-03T03:53:58;3.07;;;2.77;;
17820;SDS011;9035;42.554;23.188;2022-08-03T03:56:26;4.20;;;2.80;;
17820;SDS011;9035;42.554;23.188;2022-08-03T03:58:55;2.90;;;2.70;;
17820;SDS011;9035;42.554;23.188;2022-08-03T04:01:22;4.20;;;3.10;;
17820;SDS011;9035;42.554;23.188;2022-08-03T04:03:49;3.03;;;2.70;;
17820;SDS011;9035;42.554;23.188;2022-08-03T04:06:16;3.70;;;2.60;;
17820;SDS011;9035;42.554;23.188;2022-08-03T04:09:01;2.67;;;2.47;;
17820;SDS011;9035;42.554;23.188;2022-08-03T04:11:46;3.37;;;2.80;;
17820;SDS011;9035;42.554;23.188;2022-08-03T04:14:18;2.97;;;2.73;;
17820;SDS011;9035;42.554;23.188;2022-08-03T04:16:49;4.90;;;2.77;;
17820;SDS011;9035;42.554;23.188;2022-08-03T04:19:18;4.60;;;2.70;;
17820;SDS011;9035;42.554;23.188;2022-08-03T04:21:50;3.17;;;2.80;;
17820;SDS011;9035;42.554;23.188;2022-08-03T04:24:19;3.30;;;3.00;;
17820;SDS011;9035;42.554;23.188;2022-08-03T04:26:48;2.80;;;2.60;;
17820;SDS011;9035;42.554;23.188;2022-08-03T04:29:17;3.43;;;2.97;;
17820;SDS011;9035;42.554;23.188;2022-08-03T04:31:46;2.73;;;2.53;;
17820;SDS011;9035;42.554;23.188;2022-08-03T04:34:14;3.37;;;3.00;;
17820;SDS011;9035;42.554;23.188;2022-08-03T04:36:44;3.17;;;2.87;;
17820;SDS011;9035;42.554;23.188;2022-08-03T04:39:17;3.60;;;2.77;;
17820;SDS011;9035;42.554;23.188;2022-08-03T04:41:49;2.80;;;2.60;;
17820;SDS011;9035;42.554;23.188;2022-08-03T04:44:21;2.60;;;2.40;;
17820;SDS011;9035;42.554;23.188;2022-08-03T04:46:50;3.33;;;2.83;;
17820;SDS011;9035;42.554;23.188;2022-08-03T04:49:18;4.37;;;3.10;;
17820;SDS011;9035;42.554;23.188;2022-08-03T04:51:46;3.07;;;2.77;;
17820;SDS011;9035;42.554;23.188;2022-08-03T04:54:14;3.40;;;2.73;;
17820;SDS011;9035;42.554;23.188;2022-08-03T04:56:42;2.50;;;2.30;;
17820;SDS011;9035;42.554;23.188;2022-08-03T04:59:09;2.80;;;2.60;;
17820;SDS011;9035;42.554;23.188;2022-08-03T05:01:37;3.53;;;2.47;;
17820;SDS011;9035;42.554;23.188;2022-08-03T05:04:05;2.63;;;2.30;;
17820;SDS011;9035;42.554;23.188;2022-08-03T05:06:31;3.20;;;2.90;;
17820;SDS011;9035;42.554;23.188;2022-08-03T05:08:58;3.63;;;2.80;;
17820;SDS011;9035;42.554;23.188;2022-08-03T05:11:25;3.70;;;2.83;;
17820;SDS011;9035;42.554;23.188;2022-08-03T05:13:52;3.40;;;3.10;;
17820;SDS011;9035;42.554;23.188;2022-08-03T05:16:18;2.80;;;2.60;;
17820;SDS011;9035;42.554;23.188;2022-08-03T05:18:46;3.63;;;3.13;;
17820;SDS011;9035;42.554;23.188;2022-08-03T05:21:13;2.53;;;2.33;;
17820;SDS011;9035;42.554;23.188;2022-08-03T05:23:41;3.00;;;2.67;;
17820;SDS011;9035;42.554;23.188;2022-08-03T05:26:08;2.50;;;2.23;;
17820;SDS011;9035;42.554;23.188;2022-08-03T05:28:36;2.83;;;2.53;;
17820;SDS011;9035;42.554;23.188;2022-08-03T05:31:02;3.13;;;2.70;;
17820;SDS011;9035;42.554;23.188;2022-08-03T05:33:29;4.13;;;2.80;;
17820;SDS011;9035;42.554;23.188;2022-08-03T05:35:57;5.17;;;2.83;;
17820;SDS011;9035;42.554;23.188;2022-08-03T05:38:25;4.30;;;2.90;;
17820;SDS011;9035;42.554;23.188;2022-08-03T05:40:52;4.07;;;3.40;;
17820;SDS011;9035;42.554;23.188;2022-08-03T05:43:19;3.57;;;3.27;;
17820;SDS011;9035;42.554;23.188;2022-08-03T05:45:46;6.07;;;3.40;;
17820;SDS011;9035;42.554;23.188;2022-08-03T05:48:13;4.43;;;2.80;;
17820;SDS011;9035;42.554;23.188;2022-08-03T05:50:40;4.13;;;2.87;;
17820;SDS011;9035;42.554;23.188;2022-08-03T05:53:08;3.77;;;3.00;;
17820;SDS011;9035;42.554;23.188;2022-08-03T05:55:35;4.07;;;3.33;;
17820;SDS011;9035;42.554;23.188;2022-08-03T05:58:02;3.40;;;3.10;;
17820;SDS011;9035;42.554;23.188;2022-08-03T06:00:28;4.43;;;3.13;;
17820;SDS011;9035;42.554;23.188;2022-08-03T06:02:55;3.20;;;2.93;;
17820;SDS011;9035;42.554;23.188;2022-08-03T06:05:22;4.63;;;3.00;;
17820;SDS011;9035;42.554;23.188;2022-08-03T06:07:51;3.93;;;3.03;;
17820;SDS011;9035;42.554;23.188;2022-08-03T06:10:19;3.37;;;2.93;;
17820;SDS011;9035;42.554;23.188;2022-08-03T06:12:46;5.27;;;2.77;;
17820;SDS011;9035;42.554;23.188;2022-08-03T06:15:14;6.93;;;3.67;;
17820;SDS011;9035;42.554;23.188;2022-08-03T06:17:44;6.07;;;3.07;;
17820;SDS011;9035;42.554;23.188;2022-08-03T06:20:12;2.90;;;2.50;;
17820;SDS011;9035;42.554;23.188;2022-08-03T06:22:39;3.47;;;3.10;;
17820;SDS011;9035;42.554;23.188;2022-08-03T06:25:06;3.43;;;3.13;;
17820;SDS011;9035;42.554;23.188;2022-08-03T06:27:35;4.50;;;3.17;;
17820;SDS011;9035;42.554;23.188;2022-08-03T06:30:04;3.50;;;2.77;;
17820;SDS011;9035;42.554;23.188;2022-08-03T06:32:32;3.50;;;2.70;;
17820;SDS011;9035;42.554;23.188;2022-08-03T06:34:59;3.47;;;2.80;;
17820;SDS011;9035;42.554;23.188;2022-08-03T06:37:26;3.13;;;2.83;;
17820;SDS011;9035;42.554;23.188;2022-08-03T06:39:53;5.33;;;2.90;;
17820;SDS011;9035;42.554;23.188;2022-08-03T06:42:20;5.07;;;3.03;;
17820;SDS011;9035;42.554;23.188;2022-08-03T06:44:48;4.53;;;2.70;;
17820;SDS011;9035;42.554;23.188;2022-08-03T06:47:15;5.37;;;2.97;;
17820;SDS011;9035;42.554;23.188;2022-08-03T06:49:42;4.20;;;2.90;;
17820;SDS011;9035;42.554;23.188;2022-08-03T06:52:09;3.57;;;2.60;;
17820;SDS011;9035;42.554;23.188;2022-08-03T06:54:36;3.33;;;2.80;;
17820;SDS011;9035;42.554;23.188;2022-08-03T06:57:03;6.50;;;3.00;;
17820;SDS011;9035;42.554;23.188;2022-08-03T06:59:32;4.23;;;2.90;;
17820;SDS011;9035;42.554;23.188;2022-08-03T07:02:00;3.33;;;3.03;;
17820;SDS011;9035;42.554;23.188;2022-08-03T07:04:27;4.83;;;3.50;;
17820;SDS011;9035;42.554;23.188;2022-08-03T07:06:53;4.37;;;3.07;;
17820;SDS011;9035;42.554;23.188;2022-08-03T07:09:20;5.73;;;2.77;;
17820;SDS011;9035;42.554;23.188;2022-08-03T07:11:47;3.50;;;2.80;;
17820;SDS011;9035;42.554;23.188;2022-08-03T07:14:14;3.97;;;3.13;;
17820;SDS011;9035;42.554;23.188;2022-08-03T07:16:40;5.13;;;3.03;;
17820;SDS011;9035;42.554;23.188;2022-08-03T07:19:08;3.20;;;2.83;;
17820;SDS011;9035;42.554;23.188;2022-08-03T07:21:36;2.60;;;2.40;;
17820;SDS011;9035;42.554;23.188;2022-08-03T07:24:03;2.70;;;2.50;;
17820;SDS011;9035;42.554;23.188;2022-08-03T07:26:30;3.67;;;2.67;;
17820;SDS011;9035;42.554;23.188;2022-08-03T07:28:57;3.97;;;3.10;;
17820;SDS011;9035;42.554;23.188;2022-08-03T07:31:24;4.47;;;3.47;;
17820;SDS011;9035;42.554;23.188;2022-08-03T07:33:51;4.87;;;3.30;;
17820;SDS011;9035;42.554;23.188;2022-08-03T07:36:19;6.20;;;3.23;;
17820;SDS011;9035;42.554;23.188;2022-08-03T07:38:46;5.80;;;3.23;;
17820;SDS011;9035;42.554;23.188;2022-08-03T07:41:13;4.57;;;2.30;;
17820;SDS011;9035;42.554;23.188;2022-08-03T07:43:40;5.80;;;2.70;;
17820;SDS011;9035;42.554;23.188;2022-08-03T07:46:06;4.13;;;3.53;;
17820;SDS011;9035;42.554;23.188;2022-08-03T07:48:33;2.60;;;2.37;;
17820;SDS011;9035;42.554;23.188;2022-08-03T07:51:00;5.20;;;2.40;;
17820;SDS011;9035;42.554;23.188;2022-08-03T07:53:31;2.93;;;2.40;;
17820;SDS011;9035;42.554;23.188;2022-08-03T07:55:57;2.90;;;2.60;;
17820;SDS011;9035;42.554;23.188;2022-08-03T07:58:24;2.70;;;2.50;;
17820;SDS011;9035;42.554;23.188;2022-08-03T08:00:51;2.43;;;2.17;;
17820;SDS011;9035;42.554;23.188;2022-08-03T08:03:18;2.77;;;2.20;;
17820;SDS011;9035;42.554;23.188;2022-08-03T08:05:45;3.97;;;2.67;;
17820;SDS011;9035;42.554;23.188;2022-08-03T08:08:13;3.47;;;2.43;;
17820;SDS011;9035;42.554;23.188;2022-08-03T08:10:41;4.40;;;3.00;;
17820;SDS011;9035;42.554;23.188;2022-08-03T08:13:08;2.67;;;2.20;;
17820;SDS011;9035;42.554;23.188;2022-08-03T08:15:34;3.10;;;2.63;;
17820;SDS011;9035;42.554;23.188;2022-08-03T08:18:01;5.57;;;2.30;;
17820;SDS011;9035;42.554;23.188;2022-08-03T08:20:29;8.90;;;2.80;;
17820;SDS011;9035;42.554;23.188;2022-08-03T08:22:57;2.77;;;2.50;;
17820;SDS011;9035;42.554;23.188;2022-08-03T08:25:25;2.47;;;2.27;;
17820;SDS011;9035;42.554;23.188;2022-08-03T08:27:53;3.93;;;2.60;;
17820;SDS011;9035;42.554;23.188;2022-08-03T08:30:20;3.90;;;2.57;;
17820;SDS011;9035;42.554;23.188;2022-08-03T08:32:48;4.10;;;2.30;;
17820;SDS011;9035;42.554;23.188;2022-08-03T08:35:15;4.00;;;2.60;;
17820;SDS011;9035;42.554;23.188;2022-08-03T08:37:43;3.50;;;2.53;;
17820;SDS011;9035;42.554;23.188;2022-08-03T08:40:10;2.50;;;2.30;;
17820;SDS011;9035;42.554;23.188;2022-08-03T08:42:37;2.90;;;2.47;;
17820;SDS011;9035;42.554;23.188;2022-08-03T08:45:06;9.23;;;2.60;;
17820;SDS011;9035;42.554;23.188;2022-08-03T08:47:35;2.50;;;2.30;;
17820;SDS011;9035;42.554;23.188;2022-08-03T08:50:04;2.83;;;2.50;;
17820;SDS011;9035;42.554;23.188;2022-08-03T08:52:33;3.10;;;2.17;;
17820;SDS011;9035;42.554;23.188;2022-08-03T08:55:01;3.50;;;2.30;;
17820;SDS011;9035;42.554;23.188;2022-08-03T08:57:32;2.70;;;1.97;;
17820;SDS011;9035;42.554;23.188;2022-08-03T09:00:03;2.73;;;2.30;;
17820;SDS011;9035;42.554;23.188;2022-08-03T09:02:34;3.97;;;2.40;;
17820;SDS011;9035;42.554;23.188;2022-08-03T09:05:02;3.53;;;2.03;;
17820;SDS011;9035;42.554;23.188;2022-08-03T09:07:29;2.00;;;1.90;;
17820;SDS011;9035;42.554;23.188;2022-08-03T09:09:56;2.67;;;1.77;;
17820;SDS011;9035;42.554;23.188;2022-08-03T09:12:23;5.20;;;2.43;;
17820;SDS011;9035;42.554;23.188;2022-08-03T09:14:49;2.83;;;2.53;;
17820;SDS011;9035;42.554;23.188;2022-08-03T09:17:18;11.47;;;5.77;;
17820;SDS011;9035;42.554;23.188;2022-08-03T09:19:47;3.37;;;2.80;;
17820;SDS011;9035;42.554;23.188;2022-08-03T09:22:30;4.13;;;2.00;;
17820;SDS011;9035;42.554;23.188;2022-08-03T09:24:58;2.90;;;2.20;;
17820;SDS011;9035;42.554;23.188;2022-08-03T09:27:25;1.80;;;1.70;;
17820;SDS011;9035;42.554;23.188;2022-08-03T09:29:53;2.07;;;1.80;;
17820;SDS011;9035;42.554;23.188;2022-08-03T09:32:22;5.00;;;2.20;;
17820;SDS011;9035;42.554;23.188;2022-08-03T09:34:50;4.90;;;2.20;;
17820;SDS011;9035;42.554;23.188;2022-08-03T09:37:19;2.20;;;1.87;;
17820;SDS011;9035;42.554;23.188;2022-08-03T09:39:49;3.30;;;2.10;;
17820;SDS011;9035;42.554;23.188;2022-08-03T09:42:16;4.63;;;2.10;;
17820;SDS011;9035;42.554;23.188;2022-08-03T09:44:46;2.30;;;2.10;;
17820;SDS011;9035;42.554;23.188;2022-08-03T09:47:15;23.93;;;3.00;;
17820;SDS011;9035;42.554;23.188;2022-08-03T09:49:57;4.03;;;2.30;;
17820;SDS011;9035;42.554;23.188;2022-08-03T09:52:29;3.70;;;1.80;;
17820;SDS011;9035;42.554;23.188;2022-08-03T09:54:57;2.03;;;1.83;;
17820;SDS011;9035;42.554;23.188;2022-08-03T09:57:25;2.90;;;2.60;;
17820;SDS011;9035;42.554;23.188;2022-08-03T10:00:04;2.60;;;2.40;;
17820;SDS011;9035;42.554;23.188;2022-08-03T10:02:34;7.23;;;2.37;;
17820;SDS011;9035;42.554;23.188;2022-08-03T10:05:04;2.30;;;2.10;;
17820;SDS011;9035;42.554;23.188;2022-08-03T10:07:40;3.30;;;2.47;;
17820;SDS011;9035;42.554;23.188;2022-08-03T10:10:08;5.43;;;2.70;;
17820;SDS011;9035;42.554;23.188;2022-08-03T10:12:36;3.03;;;2.73;;
17820;SDS011;9035;42.554;23.188;2022-08-03T10:15:03;3.20;;;2.37;;
17820;SDS011;9035;42.554;23.188;2022-08-03T10:17:31;3.23;;;2.43;;
17820;SDS011;9035;42.554;23.188;2022-08-03T10:19:58;3.33;;;2.47;;
17820;SDS011;9035;42.554;23.188;2022-08-03T10:22:27;3.70;;;2.37;;
17820;SDS011;9035;42.554;23.188;2022-08-03T10:24:58;2.80;;;2.53;;
17820;SDS011;9035;42.554;23.188;2022-08-03T10:27:30;3.70;;;2.70;;
17820;SDS011;9035;42.554;23.188;2022-08-03T10:30:00;2.87;;;2.67;;
17820;SDS011;9035;42.554;23.188;2022-08-03T10:32:29;7.20;;;3.10;;
17820;SDS011;9035;42.554;23.188;2022-08-03T10:35:01;2.90;;;2.63;;
17820;SDS011;9035;42.554;23.188;2022-08-03T10:37:33;7.20;;;2.77;;
17820;SDS011;9035;42.554;23.188;2022-08-03T10:40:06;3.50;;;3.20;;
17820;SDS011;9035;42.554;23.188;2022-08-03T10:42:35;4.30;;;3.30;;
17820;SDS011;9035;42.554;23.188;2022-08-03T10:45:04;4.32;;;3.58;;
17820;SDS011;9035;42.554;23.188;2022-08-03T10:47:33;3.87;;;3.57;;
17820;SDS011;9035;42.554;23.188;2022-08-03T10:50:01;3.88;;;3.58;;
17820;SDS011;9035;42.554;23.188;2022-08-03T10:52:28;3.10;;;2.90;;
17820;SDS011;9035;42.554;23.188;2022-08-03T10:54:56;4.50;;;3.25;;
17820;SDS011;9035;42.554;23.188;2022-08-03T10:57:46;3.00;;;2.70;;
17820;SDS011;9035;42.554;23.188;2022-08-03T11:00:14;7.32;;;3.22;;
17820;SDS011;9035;42.554;23.188;2022-08-03T11:05:34;4.10;;;3.67;;
17820;SDS011;9035;42.554;23.188;2022-08-03T11:10:58;8.70;;;3.40;;
17820;SDS011;9035;42.554;23.188;2022-08-03T11:13:27;6.43;;;3.55;;
17820;SDS011;9035;42.554;23.188;2022-08-03T11:15:57;3.58;;;3.28;;
17820;SDS011;9035;42.554;23.188;2022-08-03T11:18:25;3.92;;;3.50;;
17820;SDS011;9035;42.554;23.188;2022-08-03T11:20:52;16.70;;;4.50;;
17820;SDS011;9035;42.554;23.188;2022-08-03T11:26:11;5.90;;;3.67;;
17820;SDS011;9035;42.554;23.188;2022-08-03T11:28:39;4.20;;;3.75;;
17820;SDS011;9035;42.554;23.188;2022-08-03T11:34:12;3.50;;;3.20;;
17820;SDS011;9035;42.554;23.188;2022-08-03T11:39:45;3.40;;;3.10;;
17820;SDS011;9035;42.554;23.188;2022-08-03T11:45:08;4.50;;;2.80;;
17820;SDS011;9035;42.554;23.188;2022-08-03T11:47:38;3.45;;;2.80;;
17820;SDS011;9035;42.554;23.188;2022-08-03T11:50:07;3.10;;;2.90;;
17820;SDS011;9035;42.554;23.188;2022-08-03T11:52:38;3.13;;;2.83;;
17820;SDS011;9035;42.554;23.188;2022-08-03T11:55:13;5.22;;;3.20;;
17820;SDS011;9035;42.554;23.188;2022-08-03T11:57:44;4.38;;;2.80;;
17820;SDS011;9035;42.554;23.188;2022-08-03T12:00:27;3.67;;;3.03;;
17820;SDS011;9035;42.554;23.188;2022-08-03T12:02:55;5.45;;;3.30;;
17820;SDS011;9035;42.554;23.188;2022-08-03T12:05:35;3.60;;;3.30;;
17820;SDS011;9035;42.554;23.188;2022-08-03T12:08:04;3.60;;;3.30;;
17820;SDS011;9035;42.554;23.188;2022-08-03T12:10:31;4.28;;;3.40;;
17820;SDS011;9035;42.554;23.188;2022-08-03T12:13:00;3.85;;;3.55;;
17820;SDS011;9035;42.554;23.188;2022-08-03T12:15:33;3.42;;;3.13;;
17820;SDS011;9035;42.554;23.188;2022-08-03T12:18:01;3.20;;;3.00;;
17820;SDS011;9035;42.554;23.188;2022-08-03T12:20:29;2.90;;;2.70;;
17820;SDS011;9035;42.554;23.188;2022-08-03T12:23:02;3.33;;;2.30;;
17820;SDS011;9035;42.554;23.188;2022-08-03T12:25:30;2.50;;;1.70;;
17820;SDS011;9035;42.554;23.188;2022-08-03T12:28:07;2.45;;;1.90;;
17820;SDS011;9035;42.554;23.188;2022-08-03T12:30:36;3.17;;;2.10;;
17820;SDS011;9035;42.554;23.188;2022-08-03T12:33:11;3.00;;;2.28;;
17820;SDS011;9035;42.554;23.188;2022-08-03T12:35:46;2.33;;;2.08;;
17820;SDS011;9035;42.554;23.188;2022-08-03T12:38:18;2.22;;;2.03;;
17820;SDS011;9035;42.554;23.188;2022-08-03T12:40:54;1.95;;;1.75;;
17820;SDS011;9035;42.554;23.188;2022-08-03T12:43:23;2.38;;;2.13;;
17820;SDS011;9035;42.554;23.188;2022-08-03T12:45:51;2.17;;;1.98;;
17820;SDS011;9035;42.554;23.188;2022-08-03T12:48:31;2.25;;;1.83;;
17820;SDS011;9035;42.554;23.188;2022-08-03T12:51:06;2.83;;;1.90;;
17820;SDS011;9035;42.554;23.188;2022-08-03T12:53:33;1.98;;;1.88;;
17820;SDS011;9035;42.554;23.188;2022-08-03T12:56:01;1.60;;;1.50;;
17820;SDS011;9035;42.554;23.188;2022-08-03T12:58:30;2.10;;;1.90;;
17820;SDS011;9035;42.554;23.188;2022-08-03T13:00:58;3.47;;;2.08;;
17820;SDS011;9035;42.554;23.188;2022-08-03T13:03:25;4.25;;;1.90;;
17820;SDS011;9035;42.554;23.188;2022-08-03T13:05:52;15.20;;;2.80;;
17820;SDS011;9035;42.554;23.188;2022-08-03T13:08:20;3.35;;;2.08;;
17820;SDS011;9035;42.554;23.188;2022-08-03T13:10:48;3.58;;;2.13;;
17820;SDS011;9035;42.554;23.188;2022-08-03T13:13:15;2.08;;;1.88;;
17820;SDS011;9035;42.554;23.188;2022-08-03T13:15:46;3.50;;;1.85;;
17820;SDS011;9035;42.554;23.188;2022-08-03T13:18:12;1.92;;;1.75;;
17820;SDS011;9035;42.554;23.188;2022-08-03T13:20:39;5.13;;;2.00;;
17820;SDS011;9035;42.554;23.188;2022-08-03T13:23:07;4.15;;;1.65;;
17820;SDS011;9035;42.554;23.188;2022-08-03T13:25:34;1.92;;;1.80;;
17820;SDS011;9035;42.554;23.188;2022-08-03T13:28:01;17.50;;;2.22;;
17820;SDS011;9035;42.554;23.188;2022-08-03T13:30:30;1.90;;;1.80;;
17820;SDS011;9035;42.554;23.188;2022-08-03T13:32:58;1.80;;;1.70;;
17820;SDS011;9035;42.554;23.188;2022-08-03T13:35:25;2.10;;;1.75;;
17820;SDS011;9035;42.554;23.188;2022-08-03T13:37:52;1.70;;;1.60;;
17820;SDS011;9035;42.554;23.188;2022-08-03T13:40:19;2.60;;;1.63;;
17820;SDS011;9035;42.554;23.188;2022-08-03T13:42:45;1.75;;;1.50;;
17820;SDS011;9035;42.554;23.188;2022-08-03T13:45:12;3.38;;;1.50;;
17820;SDS011;9035;42.554;23.188;2022-08-03T13:47:39;2.72;;;1.70;;
17820;SDS011;9035;42.554;23.188;2022-08-03T13:50:07;1.73;;;1.63;;
17820;SDS011;9035;42.554;23.188;2022-08-03T13:52:34;2.42;;;1.73;;
17820;SDS011;9035;42.554;23.188;2022-08-03T13:55:02;2.50;;;1.90;;
17820;SDS011;9035;42.554;23.188;2022-08-03T13:57:30;2.15;;;1.95;;
17820;SDS011;9035;42.554;23.188;2022-08-03T13:59:57;3.85;;;1.92;;
17820;SDS011;9035;42.554;23.188;2022-08-03T14:02:24;3.20;;;1.40;;
17820;SDS011;9035;42.554;23.188;2022-08-03T14:04:50;2.70;;;1.70;;
17820;SDS011;9035;42.554;23.188;2022-08-03T14:07:20;2.10;;;1.67;;
17820;SDS011;9035;42.554;23.188;2022-08-03T14:09:46;2.20;;;1.63;;
17820;SDS011;9035;42.554;23.188;2022-08-03T14:12:13;1.60;;;1.50;;
17820;SDS011;9035;42.554;23.188;2022-08-03T14:14:40;2.30;;;2.10;;
17820;SDS011;9035;42.554;23.188;2022-08-03T14:17:08;3.20;;;1.80;;
17820;SDS011;9035;42.554;23.188;2022-08-03T14:19:34;2.00;;;1.88;;
17820;SDS011;9035;42.554;23.188;2022-08-03T14:22:01;3.50;;;2.30;;
17820;SDS011;9035;42.554;23.188;2022-08-03T14:24:29;4.35;;;2.58;;
17820;SDS011;9035;42.554;23.188;2022-08-03T14:26:56;2.28;;;2.08;;
17820;SDS011;9035;42.554;23.188;2022-08-03T14:29:23;2.67;;;2.30;;
17820;SDS011;9035;42.554;23.188;2022-08-03T14:31:50;3.65;;;2.70;;
17820;SDS011;9035;42.554;23.188;2022-08-03T14:34:17;3.72;;;2.70;;
17820;SDS011;9035;42.554;23.188;2022-08-03T14:36:43;3.15;;;2.60;;
17820;SDS011;9035;42.554;23.188;2022-08-03T14:39:11;2.58;;;2.30;;
17820;SDS011;9035;42.554;23.188;2022-08-03T14:41:40;2.47;;;2.28;;
17820;SDS011;9035;42.554;23.188;2022-08-03T14:44:07;2.67;;;2.45;;
17820;SDS011;9035;42.554;23.188;2022-08-03T14:46:34;3.45;;;2.30;;
17820;SDS011;9035;42.554;23.188;2022-08-03T14:49:00;3.35;;;2.35;;
17820;SDS011;9035;42.554;23.188;2022-08-03T14:51:29;6.70;;;2.30;;
17820;SDS011;9035;42.554;23.188;2022-08-03T14:53:56;2.85;;;2.20;;
17820;SDS011;9035;42.554;23.188;2022-08-03T14:56:22;2.95;;;2.17;;
17820;SDS011;9035;42.554;23.188;2022-08-03T14:58:50;3.60;;;2.15;;
17820;SDS011;9035;42.554;23.188;2022-08-03T15:01:17;5.00;;;2.60;;
17820;SDS011;9035;42.554;23.188;2022-08-03T15:03:44;2.10;;;2.00;;
17820;SDS011;9035;42.554;23.188;2022-08-03T15:06:12;2.30;;;1.80;;
17820;SDS011;9035;42.554;23.188;2022-08-03T15:08:39;2.17;;;1.90;;
17820;SDS011;9035;42.554;23.188;2022-08-03T15:11:06;2.20;;;2.00;;
17820;SDS011;9035;42.554;23.188;2022-08-03T15:13:32;1.98;;;1.77;;
17820;SDS011;9035;42.554;23.188;2022-08-03T15:16:01;2.90;;;1.90;;
17820;SDS011;9035;42.554;23.188;2022-08-03T15:18:27;3.38;;;2.10;;